createdAt,value
2023-04-16T00:00:28.990Z,16.30
2023-04-16T00:03:01.643Z,16.30
2023-04-16T00:05:34.392Z,16.30
2023-04-16T00:08:07.042Z,16.30
2023-04-16T00:10:39.706Z,16.30
2023-04-16T00:13:12.175Z,16.30
2023-04-16T00:15:44.777Z,16.30
2023-04-16T00:18:17.301Z,16.20
2023-04-16T00:20:50.954Z,16.20
2023-04-16T00:23:26.479Z,16.20
2023-04-16T00:26:00.345Z,16.20
2023-04-16T00:28:33.038Z,16.20
2023-04-16T00:31:05.704Z,16.20
2023-04-16T00:33:38.254Z,16.20
2023-04-16T00:36:10.730Z,16.20
2023-04-16T00:38:43.358Z,16.20
2023-04-16T00:41:28.296Z,16.20
2023-04-16T00:44:05.179Z,16.20
2023-04-16T00:46:39.597Z,16.20
2023-04-16T00:49:12.128Z,16.10
2023-04-16T00:51:44.990Z,16.10
2023-04-16T00:54:17.731Z,16.10
2023-04-16T00:56:51.393Z,16.10
2023-04-16T00:59:23.933Z,16.10
2023-04-16T01:01:56.730Z,16.10
2023-04-16T01:04:31.072Z,16.00
2023-04-16T01:07:04.016Z,16.10
2023-04-16T01:09:36.708Z,16.00
2023-04-16T01:12:09.281Z,16.00
2023-04-16T01:14:41.910Z,16.00
2023-04-16T01:17:14.602Z,16.00
2023-04-16T01:19:47.210Z,16.00
2023-04-16T01:22:19.687Z,16.00
2023-04-16T01:24:52.210Z,16.00
2023-04-16T01:27:24.684Z,15.90
2023-04-16T01:29:57.322Z,15.90
2023-04-16T01:32:41.770Z,15.90
2023-04-16T01:35:14.344Z,15.90
2023-04-16T01:37:47.001Z,15.90
2023-04-16T01:40:19.972Z,15.80
2023-04-16T01:42:52.653Z,15.80
2023-04-16T01:45:25.875Z,15.80
2023-04-16T01:47:58.589Z,15.80
2023-04-16T01:50:35.059Z,15.80
2023-04-16T01:53:07.712Z,15.80
2023-04-16T01:55:40.358Z,15.80
2023-04-16T01:58:15.024Z,15.70
2023-04-16T02:00:47.728Z,15.80
2023-04-16T02:03:20.722Z,15.70
2023-04-16T02:05:53.486Z,15.70
2023-04-16T02:08:26.095Z,15.70
2023-04-16T02:11:00.224Z,15.80
2023-04-16T02:13:32.765Z,15.80
2023-04-16T02:16:05.757Z,15.70
2023-04-16T02:18:55.558Z,15.70
2023-04-16T02:21:29.478Z,15.70
2023-04-16T02:24:02.063Z,15.70
2023-04-16T02:26:36.344Z,15.70
2023-04-16T02:29:15.159Z,15.70
2023-04-16T02:31:52.073Z,15.70
2023-04-16T02:34:25.908Z,15.70
2023-04-16T02:36:59.235Z,15.70
2023-04-16T02:39:32.114Z,15.60
2023-04-16T02:42:04.723Z,15.60
2023-04-16T02:44:37.303Z,15.60
2023-04-16T02:47:10.042Z,15.60
2023-04-16T02:49:42.599Z,15.60
2023-04-16T02:52:15.745Z,15.60
2023-04-16T02:54:48.236Z,15.60
2023-04-16T02:57:21.207Z,15.60
2023-04-16T02:59:53.997Z,15.70
2023-04-16T03:02:27.661Z,15.60
2023-04-16T03:05:04.267Z,15.70
2023-04-16T03:07:36.832Z,15.70
2023-04-16T03:10:09.860Z,15.60
2023-04-16T03:12:42.377Z,15.70
2023-04-16T03:15:14.934Z,15.70
2023-04-16T03:17:47.529Z,15.70
2023-04-16T03:20:20.186Z,15.70
2023-04-16T03:22:52.994Z,15.70
2023-04-16T03:25:25.673Z,15.70
2023-04-16T03:27:58.305Z,15.70
2023-04-16T03:30:31.052Z,15.70
2023-04-16T03:33:03.657Z,15.70
2023-04-16T03:35:36.633Z,15.70
2023-04-16T03:38:09.258Z,15.70
2023-04-16T03:40:41.843Z,15.70
2023-04-16T03:43:14.866Z,15.70
2023-04-16T03:45:48.798Z,15.70
2023-04-16T03:48:22.633Z,15.70
2023-04-16T03:51:02.824Z,15.70
2023-04-16T03:53:44.269Z,15.70
2023-04-16T03:56:32.129Z,15.70
2023-04-16T03:59:13.263Z,15.70
2023-04-16T04:01:50.219Z,15.70
2023-04-16T04:04:23.677Z,15.70
2023-04-16T04:06:56.265Z,15.70
2023-04-16T04:09:53.310Z,15.80
2023-04-16T04:12:26.527Z,15.80
2023-04-16T04:14:59.098Z,15.80
2023-04-16T04:17:32.907Z,15.90
2023-04-16T04:20:08.033Z,15.90
2023-04-16T04:22:42.086Z,15.90
2023-04-16T04:25:14.846Z,15.90
2023-04-16T04:27:47.547Z,15.90
2023-04-16T04:30:20.147Z,15.90
2023-04-16T04:32:52.713Z,16.00
2023-04-16T04:35:25.503Z,16.00
2023-04-16T04:37:58.680Z,16.00
2023-04-16T04:40:32.925Z,16.00
2023-04-16T04:43:05.517Z,16.00
2023-04-16T04:45:39.476Z,16.00
2023-04-16T04:48:12.476Z,16.00
2023-04-16T04:50:46.481Z,16.00
2023-04-16T04:53:19.848Z,16.10
2023-04-16T04:55:54.225Z,16.10
2023-04-16T04:58:30.077Z,16.10
2023-04-16T05:01:02.775Z,16.10
2023-04-16T05:03:35.484Z,16.10
2023-04-16T05:06:08.282Z,16.10
2023-04-16T05:08:41.048Z,16.10
2023-04-16T05:11:13.498Z,16.10
2023-04-16T05:13:46.059Z,16.10
2023-04-16T05:16:18.696Z,16.10
2023-04-16T05:18:51.349Z,16.10
2023-04-16T05:21:24.070Z,16.10
2023-04-16T05:23:56.593Z,16.10
2023-04-16T05:26:29.153Z,16.00
2023-04-16T05:29:01.770Z,15.90
2023-04-16T05:31:35.636Z,15.90
2023-04-16T05:34:08.234Z,15.80
2023-04-16T05:36:40.776Z,15.70
2023-04-16T05:39:13.351Z,15.50
2023-04-16T05:41:45.970Z,15.40
2023-04-16T05:44:18.454Z,15.30
2023-04-16T05:46:51.559Z,15.20
2023-04-16T05:49:24.155Z,15.10
2023-04-16T05:51:56.734Z,15.10
2023-04-16T05:54:30.666Z,15.10
2023-04-16T05:57:04.038Z,15.10
2023-04-16T05:59:36.499Z,15.10
2023-04-16T06:02:09.226Z,15.10
2023-04-16T06:04:41.951Z,15.10
2023-04-16T06:07:14.658Z,15.10
2023-04-16T06:09:47.176Z,15.00
2023-04-16T06:12:19.774Z,15.00
2023-04-16T06:14:52.374Z,14.90
2023-04-16T06:17:24.961Z,14.90
2023-04-16T06:19:57.494Z,14.90
2023-04-16T06:22:30.265Z,14.80
2023-04-16T06:25:02.983Z,14.80
2023-04-16T06:27:35.640Z,14.80
2023-04-16T06:30:15.494Z,14.70
2023-04-16T06:32:48.275Z,14.70
2023-04-16T06:35:20.935Z,14.70
2023-04-16T06:37:53.489Z,14.60
2023-04-16T06:40:26.377Z,14.60
2023-04-16T06:42:58.995Z,14.60
2023-04-16T06:45:31.949Z,14.50
2023-04-16T06:48:05.488Z,14.50
2023-04-16T06:50:38.044Z,14.50
2023-04-16T06:53:10.754Z,14.50
2023-04-16T06:55:43.359Z,14.50
2023-04-16T06:58:15.914Z,14.40
2023-04-16T07:00:48.648Z,14.40
2023-04-16T07:03:21.387Z,14.40
2023-04-16T07:05:54.083Z,14.40
2023-04-16T07:08:26.685Z,14.40
2023-04-16T07:11:24.272Z,14.40
2023-04-16T07:13:57.998Z,14.40
2023-04-16T07:16:30.527Z,14.50
2023-04-16T07:19:03.164Z,14.50
2023-04-16T07:21:35.803Z,14.50
2023-04-16T07:24:08.354Z,14.60
2023-04-16T07:26:41.309Z,14.60
2023-04-16T07:29:13.882Z,14.60
2023-04-16T07:31:46.707Z,14.60
2023-04-16T07:34:19.380Z,14.60
2023-04-16T07:36:51.906Z,14.70
2023-04-16T07:39:24.607Z,14.80
2023-04-16T07:41:57.126Z,15.00
2023-04-16T07:44:30.253Z,15.10
2023-04-16T07:47:04.196Z,15.20
2023-04-16T07:49:38.096Z,15.30
2023-04-16T07:52:10.797Z,15.40
2023-04-16T07:54:43.381Z,15.60
2023-04-16T07:57:16.786Z,15.70
2023-04-16T07:59:51.922Z,15.90
2023-04-16T08:02:24.614Z,16.00
2023-04-16T08:04:57.455Z,16.20
2023-04-16T08:07:30.423Z,16.30
2023-04-16T08:10:03.094Z,16.50
2023-04-16T08:12:36.068Z,16.70
2023-04-16T08:15:09.037Z,16.80
2023-04-16T08:17:41.689Z,17.10
2023-04-16T08:20:17.607Z,17.30
2023-04-16T08:22:53.387Z,17.40
2023-04-16T08:25:26.107Z,17.60
2023-04-16T08:27:58.637Z,17.80
2023-04-16T08:30:31.330Z,17.90
2023-04-16T08:33:06.558Z,18.10
2023-04-16T08:35:39.173Z,18.20
2023-04-16T08:38:11.762Z,18.30
2023-04-16T08:40:45.508Z,18.40
2023-04-16T08:43:19.607Z,18.50
2023-04-16T08:45:56.735Z,18.60
2023-04-16T08:48:34.405Z,18.80
2023-04-16T08:51:10.209Z,18.90
2023-04-16T08:53:57.761Z,19.00
2023-04-16T08:56:36.110Z,19.10
2023-04-16T08:59:10.614Z,19.20
2023-04-16T09:01:43.990Z,19.30
2023-04-16T09:04:16.673Z,19.40
2023-04-16T09:06:50.148Z,19.40
2023-04-16T09:09:23.754Z,19.40
2023-04-16T09:11:56.836Z,19.40
2023-04-16T09:14:29.292Z,19.30
2023-04-16T09:17:02.822Z,19.30
2023-04-16T09:19:35.800Z,19.10
2023-04-16T09:22:08.460Z,19.10
2023-04-16T09:24:42.159Z,19.00
2023-04-16T09:27:14.702Z,18.90
2023-04-16T09:29:47.566Z,18.80
2023-04-16T09:32:27.489Z,18.70
2023-04-16T09:35:02.729Z,18.60
2023-04-16T09:37:36.827Z,18.50
2023-04-16T09:40:09.960Z,18.40
2023-04-16T09:42:42.245Z,18.40
2023-04-16T09:45:14.929Z,18.40
2023-04-16T09:47:47.567Z,18.40
2023-04-16T09:50:21.312Z,18.30
2023-04-16T09:53:05.033Z,18.30
2023-04-16T09:55:40.588Z,18.30
2023-04-16T09:58:18.576Z,18.30
2023-04-16T10:00:58.214Z,18.20
2023-04-16T10:03:32.710Z,18.20
2023-04-16T10:06:16.136Z,18.20
2023-04-16T10:08:58.951Z,18.10
2023-04-16T10:11:31.704Z,18.10
2023-04-16T10:14:04.355Z,18.10
2023-04-16T10:16:37.363Z,18.10
2023-04-16T10:19:10.285Z,18.10
2023-04-16T10:21:43.559Z,18.10
2023-04-16T10:24:18.327Z,18.30
2023-04-16T10:26:55.710Z,18.40
2023-04-16T10:29:32.839Z,18.60
2023-04-16T10:32:07.578Z,18.70
2023-04-16T10:34:40.866Z,18.70
2023-04-16T10:37:13.495Z,18.70
2023-04-16T10:39:50.100Z,18.60
2023-04-16T10:42:22.774Z,18.60
2023-04-16T10:45:00.874Z,18.60
2023-04-16T10:47:40.151Z,18.50
2023-04-16T10:50:18.754Z,18.40
2023-04-16T10:53:40.401Z,18.30
2023-04-16T10:56:13.345Z,18.30
2023-04-16T10:58:46.149Z,18.30
2023-04-16T11:01:19.256Z,18.30
2023-04-16T11:03:52.486Z,18.20
2023-04-16T11:06:26.896Z,18.20
2023-04-16T11:08:59.455Z,18.20
2023-04-16T11:11:39.790Z,18.20
2023-04-16T11:14:13.083Z,18.20
2023-04-16T11:16:45.935Z,18.20
2023-04-16T11:19:18.501Z,18.20
2023-04-16T11:21:53.845Z,18.30
2023-04-16T11:24:32.687Z,18.30
2023-04-16T11:27:05.451Z,18.40
2023-04-16T11:29:37.957Z,18.40
2023-04-16T11:32:10.867Z,18.50
2023-04-16T11:34:47.859Z,18.50
2023-04-16T11:37:39.274Z,18.60
2023-04-16T11:40:12.736Z,18.60
2023-04-16T11:42:45.274Z,18.60
2023-04-16T11:45:19.670Z,18.60
2023-04-16T11:47:55.566Z,18.70
2023-04-16T11:50:29.223Z,18.70
2023-04-16T11:53:06.685Z,18.80
2023-04-16T11:55:45.903Z,18.80
2023-04-16T11:58:19.456Z,18.80
2023-04-16T12:00:57.061Z,18.90
2023-04-16T12:03:47.151Z,18.90
2023-04-16T12:06:19.878Z,19.00
2023-04-16T12:08:52.370Z,19.00
2023-04-16T12:11:41.123Z,19.10
2023-04-16T12:14:13.961Z,19.10
2023-04-16T12:16:46.571Z,19.10
2023-04-16T12:19:19.184Z,19.10
2023-04-16T12:21:51.762Z,19.10
2023-04-16T12:24:27.669Z,19.10
2023-04-16T12:27:03.418Z,19.10
2023-04-16T12:29:36.118Z,19.10
2023-04-16T12:32:23.575Z,19.20
2023-04-16T12:34:56.176Z,19.20
2023-04-16T12:37:28.703Z,19.20
2023-04-16T12:40:01.228Z,19.20
2023-04-16T12:42:37.437Z,19.30
2023-04-16T12:45:09.938Z,19.20
2023-04-16T12:47:42.541Z,19.20
2023-04-16T12:50:15.072Z,19.20
2023-04-16T12:52:47.679Z,19.20
2023-04-16T12:55:20.277Z,19.20
2023-04-16T12:57:53.340Z,19.30
2023-04-16T13:00:25.652Z,19.30
2023-04-16T13:02:58.515Z,19.20
2023-04-16T13:05:31.140Z,19.30
2023-04-16T13:08:03.930Z,19.20
2023-04-16T13:10:36.433Z,19.20
2023-04-16T13:13:09.062Z,19.20
2023-04-16T13:15:41.594Z,19.20
2023-04-16T13:18:14.161Z,19.10
2023-04-16T13:20:46.620Z,19.10
2023-04-16T13:23:19.141Z,19.20
2023-04-16T13:25:54.947Z,19.20
2023-04-16T13:28:27.455Z,19.20
2023-04-16T13:31:00.306Z,19.20
2023-04-16T13:33:34.501Z,19.20
2023-04-16T13:36:07.339Z,19.20
2023-04-16T13:38:40.026Z,19.30
2023-04-16T13:41:12.535Z,19.20
2023-04-16T13:43:45.023Z,19.30
2023-04-16T13:46:19.107Z,19.20
2023-04-16T13:48:51.590Z,19.20
2023-04-16T13:51:24.231Z,19.20
2023-04-16T13:53:56.704Z,19.10
2023-04-16T13:56:29.462Z,19.10
2023-04-16T13:59:02.076Z,19.10
2023-04-16T14:01:34.826Z,19.10
2023-04-16T14:04:07.650Z,19.10
2023-04-16T14:06:40.447Z,19.10
2023-04-16T14:09:13.255Z,19.10
2023-04-16T14:11:45.873Z,19.10
2023-04-16T14:14:18.505Z,19.10
2023-04-16T14:16:51.183Z,19.10
2023-04-16T14:19:23.744Z,19.10
2023-04-16T14:21:56.275Z,19.10
2023-04-16T14:24:28.702Z,19.10
2023-04-16T14:27:01.308Z,19.10
2023-04-16T14:29:33.852Z,19.10
2023-04-16T14:32:06.950Z,19.10
2023-04-16T14:34:39.423Z,19.10
2023-04-16T14:37:12.038Z,19.00
2023-04-16T14:39:44.615Z,18.90
2023-04-16T14:42:17.131Z,18.70
2023-04-16T14:44:49.709Z,18.50
2023-04-16T14:47:22.508Z,18.40
2023-04-16T14:49:55.088Z,18.30
2023-04-16T14:52:27.913Z,18.20
2023-04-16T14:55:00.669Z,18.10
2023-04-16T14:57:33.811Z,18.10
2023-04-16T15:00:10.889Z,18.00
2023-04-16T15:02:43.678Z,17.80
2023-04-16T15:05:17.296Z,17.70
2023-04-16T15:07:49.828Z,17.60
2023-04-16T15:10:22.375Z,17.50
2023-04-16T15:12:54.925Z,17.50
2023-04-16T15:15:27.483Z,17.40
2023-04-16T15:18:00.612Z,17.40
2023-04-16T15:20:33.406Z,17.40
2023-04-16T15:23:06.137Z,17.40
2023-04-16T15:25:38.683Z,17.30
2023-04-16T15:28:11.133Z,17.30
2023-04-16T15:30:44.414Z,17.30
2023-04-16T15:33:17.029Z,17.30
2023-04-16T15:35:51.717Z,17.30
2023-04-16T15:38:24.272Z,17.20
2023-04-16T15:41:00.882Z,17.20
2023-04-16T15:43:33.368Z,17.20
2023-04-16T15:46:05.993Z,17.20
2023-04-16T15:48:38.560Z,17.20
2023-04-16T15:51:11.923Z,17.10
2023-04-16T15:53:45.490Z,17.10
2023-04-16T15:56:18.134Z,17.10
2023-04-16T15:58:50.629Z,17.10
2023-04-16T16:01:23.393Z,17.10
2023-04-16T16:03:56.179Z,17.10
2023-04-16T16:06:28.986Z,17.10
2023-04-16T16:09:02.466Z,17.20
2023-04-16T16:11:41.285Z,17.20
2023-04-16T16:14:18.704Z,17.20
2023-04-16T16:16:51.714Z,17.30
2023-04-16T16:19:24.211Z,17.30
2023-04-16T16:21:59.790Z,17.40
2023-04-16T16:24:32.515Z,17.40
2023-04-16T16:27:05.721Z,17.40
2023-04-16T16:29:38.005Z,17.40
2023-04-16T16:32:11.434Z,17.40
2023-04-16T16:34:43.948Z,17.30
2023-04-16T16:37:16.571Z,17.30
2023-04-16T16:39:49.224Z,17.30
2023-04-16T16:42:21.884Z,17.40
2023-04-16T16:44:56.031Z,17.40
2023-04-16T16:47:30.237Z,17.40
2023-04-16T16:50:03.270Z,17.40
2023-04-16T16:52:36.041Z,17.40
2023-04-16T16:55:11.314Z,17.50
2023-04-16T16:57:43.873Z,17.40
2023-04-16T17:00:17.170Z,17.40
2023-04-16T17:02:51.468Z,17.40
2023-04-16T17:05:24.125Z,17.30
2023-04-16T17:07:56.666Z,17.30
2023-04-16T17:10:29.757Z,17.30
2023-04-16T17:13:02.534Z,17.30
2023-04-16T17:15:35.046Z,17.20
2023-04-16T17:18:07.590Z,17.20
2023-04-16T17:20:40.302Z,17.20
2023-04-16T17:23:12.913Z,17.10
2023-04-16T17:25:45.798Z,17.10
2023-04-16T17:28:18.395Z,17.10
2023-04-16T17:30:56.382Z,17.00
2023-04-16T17:33:28.873Z,17.00
2023-04-16T17:36:01.554Z,17.00
2023-04-16T17:38:34.868Z,16.90
2023-04-16T17:41:07.361Z,16.90
2023-04-16T17:43:39.836Z,16.90
2023-04-16T17:46:12.400Z,16.80
2023-04-16T17:48:45.283Z,16.80
2023-04-16T17:51:17.827Z,16.80
2023-04-16T17:53:51.058Z,16.80
2023-04-16T17:56:23.484Z,16.80
2023-04-16T17:58:55.938Z,16.70
2023-04-16T18:01:28.701Z,16.70
2023-04-16T18:04:01.552Z,16.60
2023-04-16T18:06:34.334Z,16.60
2023-04-16T18:09:07.252Z,16.60
2023-04-16T18:11:40.034Z,16.60
2023-04-16T18:14:16.892Z,16.60
2023-04-16T18:16:49.944Z,16.60
2023-04-16T18:19:22.432Z,16.60
2023-04-16T18:21:55.658Z,16.60
2023-04-16T18:24:28.543Z,16.60
2023-04-16T18:27:01.732Z,16.60
2023-04-16T18:29:34.178Z,16.60
2023-04-16T18:32:09.918Z,16.60
2023-04-16T18:34:44.450Z,16.60
2023-04-16T18:37:17.650Z,16.60
2023-04-16T18:39:50.181Z,16.60
2023-04-16T18:42:23.778Z,16.60
2023-04-16T18:44:56.497Z,16.60
2023-04-16T18:47:28.998Z,16.60
2023-04-16T18:50:02.059Z,16.60
2023-04-16T18:52:34.593Z,16.60
2023-04-16T18:55:07.617Z,16.60
2023-04-16T18:57:40.515Z,16.60
2023-04-16T19:00:13.639Z,16.60
2023-04-16T19:02:46.455Z,16.50
2023-04-16T19:05:20.592Z,16.60
2023-04-16T19:07:53.172Z,16.50
2023-04-16T19:10:28.864Z,16.50
2023-04-16T19:13:05.632Z,16.50
2023-04-16T19:15:38.273Z,16.50
2023-04-16T19:18:10.821Z,16.50
2023-04-16T19:20:43.405Z,16.50
2023-04-16T19:23:16.092Z,16.50
2023-04-16T19:25:49.102Z,16.50
2023-04-16T19:28:21.747Z,16.50
2023-04-16T19:30:54.401Z,16.50
2023-04-16T19:33:26.883Z,16.50
2023-04-16T19:36:00.433Z,16.50
2023-04-16T19:38:33.056Z,16.50
2023-04-16T19:41:05.612Z,16.50
2023-04-16T19:43:38.201Z,16.60
2023-04-16T19:46:10.959Z,16.50
2023-04-16T19:48:43.536Z,16.50
2023-04-16T19:51:16.201Z,16.50
2023-04-16T19:53:48.735Z,16.50
2023-04-16T19:56:21.376Z,16.50
2023-04-16T19:58:53.973Z,16.50
2023-04-16T20:01:26.635Z,16.50
2023-04-16T20:03:59.257Z,16.50
2023-04-16T20:06:31.995Z,16.50
2023-04-16T20:09:05.191Z,16.50
2023-04-16T20:11:37.659Z,16.50
2023-04-16T20:14:10.200Z,16.50
2023-04-16T20:16:43.931Z,16.50
2023-04-16T20:19:18.643Z,16.50
2023-04-16T20:21:51.154Z,16.50
2023-04-16T20:24:24.209Z,16.50
2023-04-16T20:26:56.852Z,16.40
2023-04-16T20:29:29.308Z,16.50
2023-04-16T20:32:01.909Z,16.40
2023-04-16T20:34:34.610Z,16.40
2023-04-16T20:37:07.149Z,16.40
2023-04-16T20:39:40.282Z,16.30
2023-04-16T20:42:13.027Z,16.30
2023-04-16T20:44:50.756Z,16.30
2023-04-16T20:47:23.267Z,16.20
2023-04-16T20:49:55.899Z,16.20
2023-04-16T20:52:28.375Z,16.20
2023-04-16T20:55:00.948Z,16.20
2023-04-16T20:57:33.368Z,16.10
2023-04-16T21:00:09.751Z,16.10
2023-04-16T21:02:42.361Z,16.10
2023-04-16T21:05:15.058Z,16.10
2023-04-16T21:07:47.536Z,16.00
2023-04-16T21:10:20.501Z,16.00
2023-04-16T21:12:53.075Z,16.00
2023-04-16T21:15:25.688Z,15.90
2023-04-16T21:17:58.171Z,15.90
2023-04-16T21:20:30.804Z,15.90
2023-04-16T21:23:04.718Z,15.80
2023-04-16T21:25:37.312Z,15.80
2023-04-16T21:28:09.825Z,15.80
2023-04-16T21:30:42.412Z,15.80
2023-04-16T21:33:19.675Z,15.80
2023-04-16T21:35:57.522Z,15.70
2023-04-16T21:38:36.592Z,15.70
2023-04-16T21:41:09.223Z,15.70
2023-04-16T21:43:41.637Z,15.70
2023-04-16T21:46:14.247Z,15.60
2023-04-16T21:48:48.645Z,15.70
2023-04-16T21:51:29.318Z,15.60
2023-04-16T21:54:01.994Z,15.60
2023-04-16T21:56:34.543Z,15.60
2023-04-16T21:59:07.056Z,15.60
2023-04-16T22:01:39.590Z,15.50
2023-04-16T22:04:12.485Z,15.50
2023-04-16T22:06:46.483Z,15.50
2023-04-16T22:09:18.929Z,15.50
2023-04-16T22:11:52.725Z,15.50
2023-04-16T22:14:26.067Z,15.50
2023-04-16T22:16:58.950Z,15.50
2023-04-16T22:19:31.949Z,15.40
2023-04-16T22:22:04.508Z,15.40
2023-04-16T22:24:37.005Z,15.40
2023-04-16T22:27:09.603Z,15.40
2023-04-16T22:29:42.106Z,15.40
2023-04-16T22:32:14.731Z,15.40
2023-04-16T22:34:47.196Z,15.40
2023-04-16T22:37:19.756Z,15.30
2023-04-16T22:39:52.192Z,15.40
2023-04-16T22:42:24.870Z,15.30
2023-04-16T22:44:57.450Z,15.30
2023-04-16T22:47:30.081Z,15.30
2023-04-16T22:50:03.566Z,15.30
2023-04-16T22:52:36.198Z,15.30
2023-04-16T22:55:09.160Z,15.40
2023-04-16T22:57:42.113Z,15.40
2023-04-16T23:00:16.888Z,15.40
2023-04-16T23:02:49.496Z,15.40
2023-04-16T23:05:22.265Z,15.30
2023-04-16T23:07:54.758Z,15.30
2023-04-16T23:10:28.107Z,15.30
2023-04-16T23:13:00.998Z,15.30
2023-04-16T23:15:33.595Z,15.30
2023-04-16T23:18:06.294Z,15.30
2023-04-16T23:20:38.993Z,15.30
2023-04-16T23:23:11.423Z,15.30
2023-04-16T23:25:44.046Z,15.30
2023-04-16T23:28:16.725Z,15.30
2023-04-16T23:30:53.217Z,15.20
2023-04-16T23:33:25.768Z,15.20
2023-04-16T23:35:58.294Z,15.20
2023-04-16T23:38:31.091Z,15.20
2023-04-16T23:41:03.590Z,15.20
2023-04-16T23:43:36.687Z,15.20
2023-04-16T23:46:09.207Z,15.20
2023-04-16T23:48:41.852Z,15.20
2023-04-16T23:51:14.430Z,15.20
2023-04-16T23:53:46.979Z,15.10
2023-04-16T23:56:19.553Z,15.20
2023-04-16T23:58:52.204Z,15.20
